sensor_id;sensor_type;location;lat;lon;timestamp;pressure;altitude;pressure_sealevel;temperature;humidity
59767;BME280;46248;58.364;25.582;2022-08-19T00:01:19;101019.38;;;21.00;66.63
59767;BME280;46248;58.364;25.582;2022-08-19T00:04:49;101017.09;;;20.95;67.26
59767;BME280;46248;58.364;25.582;2022-08-19T00:08:13;101017.50;;;20.91;67.69
59767;BME280;46248;58.364;25.582;2022-08-19T00:11:35;101003.19;;;20.82;67.25
59767;BME280;46248;58.364;25.582;2022-08-19T00:14:59;101012.72;;;20.85;67.42
59767;BME280;46248;58.364;25.582;2022-08-19T00:18:21;101012.97;;;20.81;67.94
59767;BME280;46248;58.364;25.582;2022-08-19T00:21:43;101006.13;;;20.79;67.71
59767;BME280;46248;58.364;25.582;2022-08-19T00:25:06;101009.63;;;20.79;68.07
59767;BME280;46248;58.364;25.582;2022-08-19T00:28:29;101004.69;;;20.75;67.90
59767;BME280;46248;58.364;25.582;2022-08-19T00:31:56;101003.84;;;20.74;68.16
59767;BME280;46248;58.364;25.582;2022-08-19T00:35:20;101010.16;;;20.73;68.20
59767;BME280;46248;58.364;25.582;2022-08-19T00:38:42;101005.34;;;20.67;68.43
59767;BME280;46248;58.364;25.582;2022-08-19T00:42:04;101011.53;;;20.68;68.76
59767;BME280;46248;58.364;25.582;2022-08-19T00:45:27;101009.84;;;20.67;69.17
59767;BME280;46248;58.364;25.582;2022-08-19T00:48:57;101006.47;;;20.65;69.19
59767;BME280;46248;58.364;25.582;2022-08-19T00:52:24;100989.19;;;20.38;69.81
59767;BME280;46248;58.364;25.582;2022-08-19T00:55:51;101014.53;;;20.42;69.89
59767;BME280;46248;58.364;25.582;2022-08-19T00:59:15;101022.41;;;20.44;70.03
59767;BME280;46248;58.364;25.582;2022-08-19T01:02:58;101020.00;;;20.41;69.99
59767;BME280;46248;58.364;25.582;2022-08-19T01:06:22;100989.75;;;20.21;70.39
59767;BME280;46248;58.364;25.582;2022-08-19T01:09:44;101012.53;;;20.34;70.22
59767;BME280;46248;58.364;25.582;2022-08-19T01:13:06;101019.53;;;20.35;70.21
59767;BME280;46248;58.364;25.582;2022-08-19T01:16:30;101015.31;;;20.33;69.95
59767;BME280;46248;58.364;25.582;2022-08-19T01:19:54;101012.09;;;20.29;70.47
59767;BME280;46248;58.364;25.582;2022-08-19T01:23:18;101004.38;;;20.26;70.59
59767;BME280;46248;58.364;25.582;2022-08-19T01:26:41;101013.19;;;20.27;70.73
59767;BME280;46248;58.364;25.582;2022-08-19T01:30:07;101019.63;;;20.24;71.15
59767;BME280;46248;58.364;25.582;2022-08-19T01:33:30;101010.72;;;20.14;70.79
59767;BME280;46248;58.364;25.582;2022-08-19T01:36:52;101019.78;;;20.11;71.31
59767;BME280;46248;58.364;25.582;2022-08-19T01:40:16;101018.22;;;20.09;71.61
59767;BME280;46248;58.364;25.582;2022-08-19T01:43:39;101019.34;;;20.06;71.10
59767;BME280;46248;58.364;25.582;2022-08-19T01:47:22;101019.09;;;20.09;71.20
59767;BME280;46248;58.364;25.582;2022-08-19T01:50:44;101017.13;;;20.11;70.88
59767;BME280;46248;58.364;25.582;2022-08-19T01:54:06;101013.78;;;20.09;70.75
59767;BME280;46248;58.364;25.582;2022-08-19T01:57:29;101017.84;;;20.13;70.95
59767;BME280;46248;58.364;25.582;2022-08-19T02:00:52;101017.59;;;20.17;70.57
59767;BME280;46248;58.364;25.582;2022-08-19T02:04:14;101018.31;;;20.19;70.44
59767;BME280;46248;58.364;25.582;2022-08-19T02:07:37;101006.22;;;20.14;70.59
59767;BME280;46248;58.364;25.582;2022-08-19T02:11:00;101012.13;;;20.18;70.36
59767;BME280;46248;58.364;25.582;2022-08-19T02:14:24;101019.75;;;20.23;70.23
59767;BME280;46248;58.364;25.582;2022-08-19T02:17:46;101003.84;;;20.11;70.51
59767;BME280;46248;58.364;25.582;2022-08-19T02:21:09;101020.00;;;20.20;70.16
59767;BME280;46248;58.364;25.582;2022-08-19T02:24:32;101019.00;;;20.21;69.98
59767;BME280;46248;58.364;25.582;2022-08-19T02:27:54;101021.94;;;20.18;70.42
59767;BME280;46248;58.364;25.582;2022-08-19T02:31:20;101026.41;;;20.17;70.73
59767;BME280;46248;58.364;25.582;2022-08-19T02:34:44;101026.91;;;20.11;70.43
59767;BME280;46248;58.364;25.582;2022-08-19T02:38:06;101020.03;;;20.08;70.50
59767;BME280;46248;58.364;25.582;2022-08-19T02:41:52;101027.50;;;20.14;70.66
59767;BME280;46248;58.364;25.582;2022-08-19T02:45:14;101033.91;;;20.12;70.52
59767;BME280;46248;58.364;25.582;2022-08-19T02:48:37;101034.63;;;20.14;70.42
59767;BME280;46248;58.364;25.582;2022-08-19T02:51:59;101043.44;;;20.14;70.56
59767;BME280;46248;58.364;25.582;2022-08-19T02:55:21;101038.13;;;20.14;70.59
59767;BME280;46248;58.364;25.582;2022-08-19T02:58:43;101042.63;;;20.14;70.68
59767;BME280;46248;58.364;25.582;2022-08-19T03:02:06;101031.50;;;20.09;70.77
59767;BME280;46248;58.364;25.582;2022-08-19T03:05:29;101052.16;;;20.17;70.38
59767;BME280;46248;58.364;25.582;2022-08-19T03:09:11;101032.50;;;20.08;70.48
59767;BME280;46248;58.364;25.582;2022-08-19T03:12:36;101045.53;;;20.11;70.86
59767;BME280;46248;58.364;25.582;2022-08-19T03:15:58;101054.09;;;20.14;70.90
59767;BME280;46248;58.364;25.582;2022-08-19T03:19:21;101061.69;;;20.19;70.40
59767;BME280;46248;58.364;25.582;2022-08-19T03:22:44;101058.06;;;20.20;70.96
59767;BME280;46248;58.364;25.582;2022-08-19T03:26:06;101062.53;;;20.20;70.62
59767;BME280;46248;58.364;25.582;2022-08-19T03:29:37;101052.16;;;20.17;70.83
59767;BME280;46248;58.364;25.582;2022-08-19T03:33:03;101061.19;;;20.25;70.28
59767;BME280;46248;58.364;25.582;2022-08-19T03:36:27;101051.91;;;20.20;70.42
59767;BME280;46248;58.364;25.582;2022-08-19T03:39:51;101074.09;;;20.30;70.56
59767;BME280;46248;58.364;25.582;2022-08-19T03:43:13;101062.88;;;20.26;70.77
59767;BME280;46248;58.364;25.582;2022-08-19T03:46:38;101068.75;;;20.30;70.66
59767;BME280;46248;58.364;25.582;2022-08-19T03:50:04;101076.22;;;20.36;70.49
59767;BME280;46248;58.364;25.582;2022-08-19T03:53:27;101087.22;;;20.43;70.23
59767;BME280;46248;58.364;25.582;2022-08-19T03:56:52;101076.31;;;20.46;70.14
59767;BME280;46248;58.364;25.582;2022-08-19T04:00:15;101091.03;;;20.50;70.18
59767;BME280;46248;58.364;25.582;2022-08-19T04:03:38;101099.38;;;20.56;70.09
59767;BME280;46248;58.364;25.582;2022-08-19T04:07:00;101107.09;;;20.59;70.09
59767;BME280;46248;58.364;25.582;2022-08-19T04:10:22;101100.94;;;20.59;70.07
59767;BME280;46248;58.364;25.582;2022-08-19T04:13:46;101099.59;;;20.65;69.80
59767;BME280;46248;58.364;25.582;2022-08-19T04:17:09;101107.31;;;20.68;70.10
59767;BME280;46248;58.364;25.582;2022-08-19T04:20:31;101104.13;;;20.74;69.94
59767;BME280;46248;58.364;25.582;2022-08-19T04:23:54;101114.09;;;20.81;69.63
59767;BME280;46248;58.364;25.582;2022-08-19T04:27:16;101107.16;;;20.90;69.66
59767;BME280;46248;58.364;25.582;2022-08-19T04:30:41;101112.59;;;21.10;69.32
59767;BME280;46248;58.364;25.582;2022-08-19T04:34:05;101109.56;;;21.24;68.72
59767;BME280;46248;58.364;25.582;2022-08-19T04:37:28;101118.97;;;21.39;68.22
59767;BME280;46248;58.364;25.582;2022-08-19T04:40:54;101110.72;;;21.52;67.81
59767;BME280;46248;58.364;25.582;2022-08-19T04:44:35;101111.59;;;21.62;67.62
59767;BME280;46248;58.364;25.582;2022-08-19T04:48:07;101104.75;;;21.69;67.52
59767;BME280;46248;58.364;25.582;2022-08-19T04:51:46;101116.25;;;21.80;67.39
59767;BME280;46248;58.364;25.582;2022-08-19T04:55:09;101110.09;;;21.89;67.09
59767;BME280;46248;58.364;25.582;2022-08-19T04:58:31;101116.31;;;22.09;67.04
59767;BME280;46248;58.364;25.582;2022-08-19T05:01:54;101116.47;;;22.27;66.39
59767;BME280;46248;58.364;25.582;2022-08-19T05:05:18;101108.34;;;22.38;66.14
59767;BME280;46248;58.364;25.582;2022-08-19T05:08:41;101111.16;;;22.56;65.87
59767;BME280;46248;58.364;25.582;2022-08-19T05:12:04;101111.56;;;22.71;65.34
59767;BME280;46248;58.364;25.582;2022-08-19T05:15:26;101117.13;;;22.87;65.18
59767;BME280;46248;58.364;25.582;2022-08-19T05:18:49;101117.44;;;23.03;64.86
59767;BME280;46248;58.364;25.582;2022-08-19T05:22:30;101119.19;;;23.22;64.41
59767;BME280;46248;58.364;25.582;2022-08-19T05:25:56;101120.25;;;23.39;63.79
59767;BME280;46248;58.364;25.582;2022-08-19T05:29:20;101124.13;;;23.54;63.66
59767;BME280;46248;58.364;25.582;2022-08-19T05:32:42;101105.78;;;23.60;63.45
59767;BME280;46248;58.364;25.582;2022-08-19T05:36:04;101124.81;;;23.84;62.81
59767;BME280;46248;58.364;25.582;2022-08-19T05:39:31;101129.59;;;24.08;62.88
59767;BME280;46248;58.364;25.582;2022-08-19T05:42:53;101134.81;;;24.28;61.68
59767;BME280;46248;58.364;25.582;2022-08-19T05:46:17;101139.94;;;24.39;61.73
59767;BME280;46248;58.364;25.582;2022-08-19T05:49:47;101131.38;;;24.53;61.70
59767;BME280;46248;58.364;25.582;2022-08-19T05:53:11;101131.34;;;24.71;61.26
59767;BME280;46248;58.364;25.582;2022-08-19T05:56:35;101132.94;;;24.82;61.62
59767;BME280;46248;58.364;25.582;2022-08-19T05:59:58;101131.50;;;24.87;61.27
59767;BME280;46248;58.364;25.582;2022-08-19T06:03:22;101130.16;;;24.91;61.55
59767;BME280;46248;58.364;25.582;2022-08-19T06:06:45;101134.06;;;24.97;61.09
59767;BME280;46248;58.364;25.582;2022-08-19T06:10:09;101115.03;;;25.08;60.69
59767;BME280;46248;58.364;25.582;2022-08-19T06:13:33;101131.75;;;25.28;60.66
59767;BME280;46248;58.364;25.582;2022-08-19T06:16:57;101114.06;;;25.44;60.20
59767;BME280;46248;58.364;25.582;2022-08-19T06:20:26;101112.28;;;25.61;59.65
59767;BME280;46248;58.364;25.582;2022-08-19T06:24:11;101119.03;;;25.73;59.70
59767;BME280;46248;58.364;25.582;2022-08-19T06:27:33;101121.38;;;25.68;59.76
59767;BME280;46248;58.364;25.582;2022-08-19T06:30:57;101126.25;;;25.72;58.97
59767;BME280;46248;58.364;25.582;2022-08-19T06:34:19;101133.19;;;25.83;58.76
59767;BME280;46248;58.364;25.582;2022-08-19T06:37:41;101143.09;;;25.91;58.08
59767;BME280;46248;58.364;25.582;2022-08-19T06:41:05;101138.75;;;25.98;58.41
59767;BME280;46248;58.364;25.582;2022-08-19T06:44:30;101133.94;;;26.18;58.01
59767;BME280;46248;58.364;25.582;2022-08-19T06:48:04;101140.66;;;26.38;57.77
59767;BME280;46248;58.364;25.582;2022-08-19T06:51:27;101147.25;;;26.60;56.48
59767;BME280;46248;58.364;25.582;2022-08-19T06:54:51;101132.97;;;26.68;56.08
59767;BME280;46248;58.364;25.582;2022-08-19T06:58:16;101132.78;;;26.78;56.06
59767;BME280;46248;58.364;25.582;2022-08-19T07:01:40;101143.03;;;26.90;56.51
59767;BME280;46248;58.364;25.582;2022-08-19T07:05:05;101148.03;;;27.10;56.19
59767;BME280;46248;58.364;25.582;2022-08-19T07:08:30;101141.44;;;27.29;55.07
59767;BME280;46248;58.364;25.582;2022-08-19T07:11:53;101150.53;;;27.36;54.93
59767;BME280;46248;58.364;25.582;2022-08-19T07:15:16;101148.66;;;27.36;54.81
59767;BME280;46248;58.364;25.582;2022-08-19T07:18:38;101155.00;;;27.52;54.50
59767;BME280;46248;58.364;25.582;2022-08-19T07:22:07;101158.47;;;27.69;53.98
59767;BME280;46248;58.364;25.582;2022-08-19T07:25:32;101156.56;;;27.85;53.81
59767;BME280;46248;58.364;25.582;2022-08-19T07:28:55;101150.22;;;28.01;52.38
59767;BME280;46248;58.364;25.582;2022-08-19T07:32:19;101150.03;;;28.11;52.88
59767;BME280;46248;58.364;25.582;2022-08-19T07:35:41;101147.09;;;28.21;53.03
59767;BME280;46248;58.364;25.582;2022-08-19T07:39:11;101149.66;;;28.37;51.59
59767;BME280;46248;58.364;25.582;2022-08-19T07:42:33;101155.84;;;28.46;51.89
59767;BME280;46248;58.364;25.582;2022-08-19T07:45:55;101154.66;;;28.48;51.69
59767;BME280;46248;58.364;25.582;2022-08-19T07:49:19;101160.16;;;28.55;52.08
59767;BME280;46248;58.364;25.582;2022-08-19T07:52:42;101160.56;;;28.67;50.87
59767;BME280;46248;58.364;25.582;2022-08-19T07:56:10;101163.84;;;28.77;51.08
59767;BME280;46248;58.364;25.582;2022-08-19T07:59:33;101160.91;;;28.87;50.53
59767;BME280;46248;58.364;25.582;2022-08-19T08:02:55;101158.31;;;28.93;50.36
59767;BME280;46248;58.364;25.582;2022-08-19T08:06:17;101167.00;;;29.04;50.33
59767;BME280;46248;58.364;25.582;2022-08-19T08:09:57;101158.00;;;29.11;50.30
59767;BME280;46248;58.364;25.582;2022-08-19T08:13:24;101155.94;;;29.13;49.81
59767;BME280;46248;58.364;25.582;2022-08-19T08:16:47;101140.69;;;29.06;49.11
59767;BME280;46248;58.364;25.582;2022-08-19T08:20:11;101161.91;;;29.24;48.70
59767;BME280;46248;58.364;25.582;2022-08-19T08:23:34;101171.00;;;29.22;49.11
59767;BME280;46248;58.364;25.582;2022-08-19T08:27:00;101172.69;;;29.24;49.41
59767;BME280;46248;58.364;25.582;2022-08-19T08:30:31;101168.69;;;29.34;49.45
59767;BME280;46248;58.364;25.582;2022-08-19T08:33:56;101173.72;;;29.37;48.88
59767;BME280;46248;58.364;25.582;2022-08-19T08:37:17;101179.09;;;29.37;49.11
59767;BME280;46248;58.364;25.582;2022-08-19T08:40:44;101177.91;;;29.55;47.51
59767;BME280;46248;58.364;25.582;2022-08-19T08:44:12;101172.50;;;29.55;47.28
59767;BME280;46248;58.364;25.582;2022-08-19T08:47:43;101159.38;;;29.52;47.89
59767;BME280;46248;58.364;25.582;2022-08-19T08:51:10;101176.44;;;29.67;46.79
59767;BME280;46248;58.364;25.582;2022-08-19T08:54:43;101176.72;;;29.72;47.70
59767;BME280;46248;58.364;25.582;2022-08-19T08:58:17;101174.75;;;29.81;46.07
59767;BME280;46248;58.364;25.582;2022-08-19T09:01:43;101169.34;;;29.81;45.88
59767;BME280;46248;58.364;25.582;2022-08-19T09:05:08;101172.13;;;29.87;45.98
59767;BME280;46248;58.364;25.582;2022-08-19T09:08:41;101180.34;;;30.01;46.52
59767;BME280;46248;58.364;25.582;2022-08-19T09:12:22;101180.91;;;30.11;43.04
59767;BME280;46248;58.364;25.582;2022-08-19T09:15:50;101167.78;;;30.08;44.22
59767;BME280;46248;58.364;25.582;2022-08-19T09:19:14;101178.91;;;30.20;44.03
59767;BME280;46248;58.364;25.582;2022-08-19T09:22:43;101178.53;;;30.23;44.50
59767;BME280;46248;58.364;25.582;2022-08-19T09:26:08;101180.34;;;30.37;44.29
59767;BME280;46248;58.364;25.582;2022-08-19T09:29:31;101188.72;;;30.42;44.16
59767;BME280;46248;58.364;25.582;2022-08-19T09:32:54;101171.94;;;30.47;42.64
59767;BME280;46248;58.364;25.582;2022-08-19T09:36:18;101192.31;;;30.49;43.12
59767;BME280;46248;58.364;25.582;2022-08-19T09:39:56;101188.72;;;30.42;41.75
59767;BME280;46248;58.364;25.582;2022-08-19T09:43:18;101184.66;;;30.31;43.50
59767;BME280;46248;58.364;25.582;2022-08-19T09:47:01;101190.72;;;30.33;42.01
59767;BME280;46248;58.364;25.582;2022-08-19T09:50:24;101180.69;;;30.27;42.56
59767;BME280;46248;58.364;25.582;2022-08-19T09:53:47;101172.31;;;30.22;42.68
59767;BME280;46248;58.364;25.582;2022-08-19T09:57:14;101198.81;;;30.33;42.25
59767;BME280;46248;58.364;25.582;2022-08-19T10:00:38;101195.34;;;30.40;42.56
59767;BME280;46248;58.364;25.582;2022-08-19T10:04:00;101200.88;;;30.53;43.67
59767;BME280;46248;58.364;25.582;2022-08-19T10:07:39;101201.03;;;30.66;41.97
59767;BME280;46248;58.364;25.582;2022-08-19T10:11:03;101195.34;;;30.61;40.60
59767;BME280;46248;58.364;25.582;2022-08-19T10:14:47;101202.69;;;30.67;41.30
59767;BME280;46248;58.364;25.582;2022-08-19T10:18:11;101203.03;;;30.79;41.41
59767;BME280;46248;58.364;25.582;2022-08-19T10:21:34;101205.00;;;30.92;40.49
59767;BME280;46248;58.364;25.582;2022-08-19T10:24:59;101194.47;;;31.03;41.29
59767;BME280;46248;58.364;25.582;2022-08-19T10:28:21;101197.31;;;31.17;39.86
59767;BME280;46248;58.364;25.582;2022-08-19T10:31:46;101165.53;;;30.97;39.92
59767;BME280;46248;58.364;25.582;2022-08-19T10:35:22;101184.97;;;31.08;40.84
59767;BME280;46248;58.364;25.582;2022-08-19T10:38:49;101183.69;;;31.10;39.75
59767;BME280;46248;58.364;25.582;2022-08-19T10:42:16;101161.78;;;30.98;40.37
59767;BME280;46248;58.364;25.582;2022-08-19T10:45:39;101175.91;;;30.94;40.42
59767;BME280;46248;58.364;25.582;2022-08-19T10:49:14;101177.44;;;31.03;41.17
59767;BME280;46248;58.364;25.582;2022-08-19T10:52:38;101185.53;;;31.03;39.12
59767;BME280;46248;58.364;25.582;2022-08-19T10:56:09;101178.47;;;31.02;38.98
59767;BME280;46248;58.364;25.582;2022-08-19T10:59:49;101171.28;;;30.88;37.82
59767;BME280;46248;58.364;25.582;2022-08-19T11:03:11;101180.22;;;30.88;36.73
59767;BME280;46248;58.364;25.582;2022-08-19T11:06:35;101173.47;;;30.77;35.72
59767;BME280;46248;58.364;25.582;2022-08-19T11:09:58;101179.66;;;30.71;37.50
59767;BME280;46248;58.364;25.582;2022-08-19T11:13:21;101173.22;;;30.72;37.83
59767;BME280;46248;58.364;25.582;2022-08-19T11:16:44;101172.38;;;30.72;38.03
59767;BME280;46248;58.364;25.582;2022-08-19T11:20:07;101171.06;;;30.68;36.88
59767;BME280;46248;58.364;25.582;2022-08-19T11:23:30;101168.16;;;30.63;36.32
59767;BME280;46248;58.364;25.582;2022-08-19T11:26:54;101161.03;;;30.62;37.58
59767;BME280;46248;58.364;25.582;2022-08-19T11:30:19;101160.66;;;30.65;37.24
59767;BME280;46248;58.364;25.582;2022-08-19T11:33:42;101170.63;;;30.64;37.19
59767;BME280;46248;58.364;25.582;2022-08-19T11:37:07;101164.97;;;30.59;36.65
59767;BME280;46248;58.364;25.582;2022-08-19T11:40:31;101165.06;;;30.66;36.27
59767;BME280;46248;58.364;25.582;2022-08-19T11:43:53;101161.31;;;30.67;36.50
59767;BME280;46248;58.364;25.582;2022-08-19T11:47:16;101149.66;;;30.66;36.71
59767;BME280;46248;58.364;25.582;2022-08-19T11:50:38;101153.47;;;30.72;37.26
59767;BME280;46248;58.364;25.582;2022-08-19T11:54:05;101150.81;;;30.78;36.38
59767;BME280;46248;58.364;25.582;2022-08-19T11:57:29;101148.50;;;30.75;35.76
59767;BME280;46248;58.364;25.582;2022-08-19T12:00:51;101130.53;;;30.68;35.79
59767;BME280;46248;58.364;25.582;2022-08-19T12:04:13;101144.75;;;30.76;36.14
59767;BME280;46248;58.364;25.582;2022-08-19T12:07:37;101143.53;;;30.79;36.50
59767;BME280;46248;58.364;25.582;2022-08-19T12:11:00;101150.44;;;30.82;35.86
59767;BME280;46248;58.364;25.582;2022-08-19T12:14:24;101143.47;;;30.72;36.38
59767;BME280;46248;58.364;25.582;2022-08-19T12:17:48;101151.75;;;30.71;37.18
59767;BME280;46248;58.364;25.582;2022-08-19T12:21:10;101137.69;;;30.75;36.99
59767;BME280;46248;58.364;25.582;2022-08-19T12:24:33;101152.31;;;30.81;36.73
59767;BME280;46248;58.364;25.582;2022-08-19T12:27:56;101145.47;;;30.85;36.82
59767;BME280;46248;58.364;25.582;2022-08-19T12:31:20;101130.72;;;30.88;36.32
59767;BME280;46248;58.364;25.582;2022-08-19T12:34:42;101144.25;;;30.88;37.11
59767;BME280;46248;58.364;25.582;2022-08-19T12:38:05;101137.59;;;30.90;36.57
59767;BME280;46248;58.364;25.582;2022-08-19T12:41:27;101128.19;;;30.86;36.14
59767;BME280;46248;58.364;25.582;2022-08-19T12:44:49;101131.69;;;30.80;36.10
59767;BME280;46248;58.364;25.582;2022-08-19T12:48:13;101128.81;;;30.82;36.03
59767;BME280;46248;58.364;25.582;2022-08-19T12:51:53;101120.47;;;30.83;36.92
59767;BME280;46248;58.364;25.582;2022-08-19T12:55:15;101122.78;;;30.86;36.81
59767;BME280;46248;58.364;25.582;2022-08-19T12:58:39;101124.22;;;30.82;36.32
59767;BME280;46248;58.364;25.582;2022-08-19T13:02:10;101112.50;;;30.75;37.04
59767;BME280;46248;58.364;25.582;2022-08-19T13:05:33;101117.72;;;30.76;36.63
59767;BME280;46248;58.364;25.582;2022-08-19T13:08:56;101095.66;;;30.73;36.57
59767;BME280;46248;58.364;25.582;2022-08-19T13:12:19;101117.38;;;30.86;36.00
59767;BME280;46248;58.364;25.582;2022-08-19T13:15:44;101113.66;;;30.87;35.78
59767;BME280;46248;58.364;25.582;2022-08-19T13:19:08;101109.28;;;30.86;35.22
59767;BME280;46248;58.364;25.582;2022-08-19T13:22:34;101116.75;;;30.84;36.01
59767;BME280;46248;58.364;25.582;2022-08-19T13:25:58;101120.94;;;30.87;35.69
59767;BME280;46248;58.364;25.582;2022-08-19T13:29:20;101112.78;;;30.80;35.05
59767;BME280;46248;58.364;25.582;2022-08-19T13:33:03;101117.28;;;30.73;35.17
59767;BME280;46248;58.364;25.582;2022-08-19T13:36:36;101118.38;;;30.78;35.67
59767;BME280;46248;58.364;25.582;2022-08-19T13:40:01;101115.72;;;30.85;35.14
59767;BME280;46248;58.364;25.582;2022-08-19T13:43:26;101108.44;;;30.86;35.82
59767;BME280;46248;58.364;25.582;2022-08-19T13:46:49;101115.19;;;30.96;35.19
59767;BME280;46248;58.364;25.582;2022-08-19T13:50:17;101106.03;;;30.97;34.75
59767;BME280;46248;58.364;25.582;2022-08-19T13:53:39;101111.19;;;30.92;36.16
59767;BME280;46248;58.364;25.582;2022-08-19T13:57:09;101110.13;;;30.87;35.92
59767;BME280;46248;58.364;25.582;2022-08-19T14:00:34;101110.31;;;30.85;36.14
59767;BME280;46248;58.364;25.582;2022-08-19T14:03:57;101115.00;;;30.76;35.67
59767;BME280;46248;58.364;25.582;2022-08-19T14:07:19;101108.72;;;30.69;35.24
59767;BME280;46248;58.364;25.582;2022-08-19T14:10:44;101110.38;;;30.70;35.76
59767;BME280;46248;58.364;25.582;2022-08-19T14:14:08;101105.19;;;30.69;34.99
59767;BME280;46248;58.364;25.582;2022-08-19T14:17:37;101105.19;;;30.69;35.24
59767;BME280;46248;58.364;25.582;2022-08-19T14:21:00;101107.25;;;30.67;35.96
59767;BME280;46248;58.364;25.582;2022-08-19T14:24:23;101103.91;;;30.65;35.06
59767;BME280;46248;58.364;25.582;2022-08-19T14:27:46;101104.72;;;30.65;34.13
59767;BME280;46248;58.364;25.582;2022-08-19T14:31:10;101098.88;;;30.62;34.74
59767;BME280;46248;58.364;25.582;2022-08-19T14:34:33;101099.53;;;30.64;35.26
59767;BME280;46248;58.364;25.582;2022-08-19T14:37:57;101094.38;;;30.69;34.87
59767;BME280;46248;58.364;25.582;2022-08-19T14:41:22;101092.94;;;30.73;34.55
59767;BME280;46248;58.364;25.582;2022-08-19T14:44:44;101102.50;;;30.69;34.83
59767;BME280;46248;58.364;25.582;2022-08-19T14:48:08;101091.69;;;30.69;34.18
59767;BME280;46248;58.364;25.582;2022-08-19T14:51:38;101096.25;;;30.68;35.17
59767;BME280;46248;58.364;25.582;2022-08-19T14:55:01;101091.22;;;30.65;34.61
59767;BME280;46248;58.364;25.582;2022-08-19T14:58:27;101088.91;;;30.62;35.14
59767;BME280;46248;58.364;25.582;2022-08-19T15:01:49;101087.28;;;30.68;35.52
59767;BME280;46248;58.364;25.582;2022-08-19T15:05:14;101092.91;;;30.66;35.44
59767;BME280;46248;58.364;25.582;2022-08-19T15:08:38;101091.41;;;30.64;35.30
59767;BME280;46248;58.364;25.582;2022-08-19T15:12:02;101101.59;;;30.62;35.83
59767;BME280;46248;58.364;25.582;2022-08-19T15:15:25;101104.09;;;30.63;35.97
59767;BME280;46248;58.364;25.582;2022-08-19T15:18:50;101103.44;;;30.61;35.82
59767;BME280;46248;58.364;25.582;2022-08-19T15:22:16;101109.47;;;30.56;35.51
59767;BME280;46248;58.364;25.582;2022-08-19T15:25:38;101101.28;;;30.50;36.30
59767;BME280;46248;58.364;25.582;2022-08-19T15:29:03;101096.91;;;30.49;36.24
59767;BME280;46248;58.364;25.582;2022-08-19T15:32:25;101098.34;;;30.45;36.14
59767;BME280;46248;58.364;25.582;2022-08-19T15:35:48;101095.00;;;30.43;36.65
59767;BME280;46248;58.364;25.582;2022-08-19T15:39:13;101086.84;;;30.36;36.65
59767;BME280;46248;58.364;25.582;2022-08-19T15:42:37;101098.91;;;30.40;37.35
59767;BME280;46248;58.364;25.582;2022-08-19T15:46:01;101100.53;;;30.34;37.19
59767;BME280;46248;58.364;25.582;2022-08-19T15:49:24;101106.72;;;30.28;37.34
59767;BME280;46248;58.364;25.582;2022-08-19T15:52:47;101101.91;;;30.24;37.83
59767;BME280;46248;58.364;25.582;2022-08-19T15:56:12;101094.34;;;30.19;37.95
59767;BME280;46248;58.364;25.582;2022-08-19T15:59:37;101073.31;;;29.93;37.17
59767;BME280;46248;58.364;25.582;2022-08-19T16:03:22;101095.09;;;29.92;37.97
59767;BME280;46248;58.364;25.582;2022-08-19T16:07:02;101094.53;;;29.75;38.55
59767;BME280;46248;58.364;25.582;2022-08-19T16:10:24;101102.34;;;29.70;38.35
59767;BME280;46248;58.364;25.582;2022-08-19T16:13:50;101099.25;;;29.58;38.40
59767;BME280;46248;58.364;25.582;2022-08-19T16:17:13;101102.25;;;29.48;39.11
59767;BME280;46248;58.364;25.582;2022-08-19T16:20:36;101104.88;;;29.41;39.04
59767;BME280;46248;58.364;25.582;2022-08-19T16:23:59;101107.22;;;29.44;39.12
59767;BME280;46248;58.364;25.582;2022-08-19T16:27:22;101105.41;;;29.52;39.62
59767;BME280;46248;58.364;25.582;2022-08-19T16:30:46;101110.53;;;29.61;39.17
59767;BME280;46248;58.364;25.582;2022-08-19T16:34:11;101117.94;;;29.74;39.62
59767;BME280;46248;58.364;25.582;2022-08-19T16:37:33;101116.94;;;29.75;39.32
59767;BME280;46248;58.364;25.582;2022-08-19T16:40:55;101117.50;;;29.71;39.95
59767;BME280;46248;58.364;25.582;2022-08-19T16:44:20;101119.38;;;29.55;39.86
59767;BME280;46248;58.364;25.582;2022-08-19T16:47:43;101128.50;;;29.39;39.82
59767;BME280;46248;58.364;25.582;2022-08-19T16:51:06;101133.72;;;29.26;40.38
59767;BME280;46248;58.364;25.582;2022-08-19T16:54:27;101126.94;;;29.15;40.56
59767;BME280;46248;58.364;25.582;2022-08-19T16:57:51;101136.53;;;28.95;40.76
59767;BME280;46248;58.364;25.582;2022-08-19T17:01:13;101133.00;;;28.80;41.16
59767;BME280;46248;58.364;25.582;2022-08-19T17:04:37;101132.69;;;28.60;41.46
59767;BME280;46248;58.364;25.582;2022-08-19T17:07:59;101138.13;;;28.51;41.87
59767;BME280;46248;58.364;25.582;2022-08-19T17:11:22;101133.63;;;28.44;42.23
59767;BME280;46248;58.364;25.582;2022-08-19T17:14:45;101136.38;;;28.36;42.14
59767;BME280;46248;58.364;25.582;2022-08-19T17:18:08;101132.44;;;28.23;42.40
59767;BME280;46248;58.364;25.582;2022-08-19T17:21:33;101135.66;;;28.19;42.72
59767;BME280;46248;58.364;25.582;2022-08-19T17:24:56;101136.25;;;28.06;42.96
59767;BME280;46248;58.364;25.582;2022-08-19T17:28:23;101114.19;;;27.79;43.36
59767;BME280;46248;58.364;25.582;2022-08-19T17:31:46;101138.06;;;27.74;43.29
59767;BME280;46248;58.364;25.582;2022-08-19T17:35:09;101138.63;;;27.61;43.63
59767;BME280;46248;58.364;25.582;2022-08-19T17:38:33;101152.16;;;27.45;43.91